createdAt,value
2023-07-07T00:02:18.558Z,22.98
2023-07-07T00:05:21.103Z,22.94
2023-07-07T00:08:23.607Z,22.93
2023-07-07T00:11:25.952Z,22.93
2023-07-07T00:14:28.490Z,22.95
2023-07-07T00:17:30.879Z,22.83
2023-07-07T00:20:33.233Z,22.88
2023-07-07T00:23:39.210Z,23.00
2023-07-07T00:26:41.573Z,23.07
2023-07-07T00:29:43.988Z,23.02
2023-07-07T00:32:46.350Z,23.03
2023-07-07T00:35:49.313Z,23.15
2023-07-07T00:38:53.283Z,22.99
2023-07-07T00:41:55.660Z,22.97
2023-07-07T00:45:18.280Z,22.86
2023-07-07T00:48:22.601Z,22.84
2023-07-07T00:51:32.261Z,22.86
2023-07-07T00:54:34.645Z,22.89
2023-07-07T00:57:37.017Z,22.81
2023-07-07T01:00:40.092Z,22.69
2023-07-07T01:03:44.980Z,22.64
2023-07-07T01:06:52.302Z,22.73
2023-07-07T01:09:54.688Z,22.64
2023-07-07T01:12:57.087Z,22.78
2023-07-07T01:16:07.221Z,22.73
2023-07-07T01:19:20.892Z,22.76
2023-07-07T01:22:36.794Z,22.72
2023-07-07T01:26:03.793Z,22.56
2023-07-07T01:29:39.956Z,22.57
2023-07-07T01:32:42.389Z,22.45
2023-07-07T01:35:45.471Z,22.47
2023-07-07T01:38:47.963Z,22.43
2023-07-07T01:42:06.351Z,22.40
2023-07-07T01:45:14.100Z,22.27
2023-07-07T01:48:38.713Z,22.20
2023-07-07T01:52:01.018Z,22.14
2023-07-07T01:55:17.067Z,22.11
2023-07-07T01:58:19.646Z,22.07
2023-07-07T02:01:22.088Z,22.13
2023-07-07T02:04:24.686Z,22.05
2023-07-07T02:07:27.072Z,22.03
2023-07-07T02:10:29.474Z,22.05
2023-07-07T02:13:31.945Z,22.05
2023-07-07T02:16:34.430Z,22.04
2023-07-07T02:19:36.798Z,21.95
2023-07-07T02:22:39.637Z,21.87
2023-07-07T02:25:42.039Z,21.85
2023-07-07T02:28:44.385Z,21.83
2023-07-07T02:31:46.818Z,21.85
2023-07-07T02:34:49.348Z,21.70
2023-07-07T02:37:51.778Z,21.69
2023-07-07T02:40:55.454Z,21.57
2023-07-07T02:43:57.948Z,21.57
2023-07-07T02:47:00.349Z,21.41
2023-07-07T02:50:02.722Z,21.62
2023-07-07T02:53:05.066Z,21.67
2023-07-07T02:56:07.530Z,21.57
2023-07-07T02:59:09.930Z,21.54
2023-07-07T03:02:12.343Z,21.48
2023-07-07T03:05:14.807Z,21.53
2023-07-07T03:08:17.826Z,21.51
2023-07-07T03:11:22.555Z,21.52
2023-07-07T03:14:24.944Z,21.47
2023-07-07T03:17:31.690Z,21.40
2023-07-07T03:20:34.301Z,21.43
2023-07-07T03:23:37.269Z,21.35
2023-07-07T03:26:42.413Z,21.30
2023-07-07T03:29:45.903Z,21.33
2023-07-07T03:32:51.994Z,21.19
2023-07-07T03:35:55.391Z,21.26
2023-07-07T03:38:58.055Z,21.26
2023-07-07T03:42:00.670Z,21.30
2023-07-07T03:45:03.384Z,21.24
2023-07-07T03:48:07.815Z,21.15
2023-07-07T03:51:10.338Z,21.25
2023-07-07T03:54:13.069Z,21.17
2023-07-07T03:57:16.029Z,21.21
2023-07-07T04:00:18.417Z,21.29
2023-07-07T04:03:21.165Z,21.29
2023-07-07T04:06:23.726Z,21.34
2023-07-07T04:09:26.263Z,21.31
2023-07-07T04:12:32.892Z,21.25
2023-07-07T04:15:35.272Z,21.26
2023-07-07T04:18:37.842Z,21.31
2023-07-07T04:21:40.239Z,21.34
2023-07-07T04:24:42.677Z,21.37
2023-07-07T04:27:46.489Z,21.36
2023-07-07T04:30:53.151Z,21.36
2023-07-07T04:33:55.611Z,21.45
2023-07-07T04:36:58.002Z,21.49
2023-07-07T04:40:00.468Z,21.58
2023-07-07T04:43:02.844Z,21.53
2023-07-07T04:46:06.038Z,21.53
2023-07-07T04:49:08.919Z,21.63
2023-07-07T04:52:12.192Z,21.76
2023-07-07T04:55:14.637Z,21.94
2023-07-07T04:58:17.050Z,22.02
2023-07-07T05:01:21.584Z,21.92
2023-07-07T05:04:24.007Z,21.93
2023-07-07T05:07:27.355Z,22.05
2023-07-07T05:10:29.772Z,21.98
2023-07-07T05:13:33.083Z,22.00
2023-07-07T05:16:38.908Z,21.92
2023-07-07T05:19:41.531Z,22.17
2023-07-07T05:22:43.889Z,22.29
2023-07-07T05:25:46.649Z,22.29
2023-07-07T05:28:49.570Z,22.35
2023-07-07T05:31:51.988Z,22.57
2023-07-07T05:34:54.553Z,22.64
2023-07-07T05:37:56.976Z,22.88
2023-07-07T05:40:59.982Z,23.13
2023-07-07T05:44:02.667Z,23.24
2023-07-07T05:47:05.448Z,23.33
2023-07-07T05:50:08.863Z,23.41
2023-07-07T05:53:11.533Z,23.53
2023-07-07T05:56:22.109Z,23.58
2023-07-07T05:59:24.506Z,23.74
2023-07-07T06:02:26.938Z,23.72
2023-07-07T06:05:29.830Z,23.83
2023-07-07T06:08:32.459Z,24.08
2023-07-07T06:11:34.824Z,24.06
2023-07-07T06:14:37.205Z,24.23
2023-07-07T06:17:39.781Z,24.41
2023-07-07T06:20:42.963Z,24.12
2023-07-07T06:23:45.370Z,24.25
2023-07-07T06:26:47.813Z,24.33
2023-07-07T06:29:50.241Z,24.21
2023-07-07T06:32:52.663Z,24.09
2023-07-07T06:35:55.146Z,24.03
2023-07-07T06:38:57.530Z,24.10
2023-07-07T06:42:01.214Z,24.24
2023-07-07T06:45:09.596Z,24.02
2023-07-07T06:48:12.041Z,24.04
2023-07-07T06:51:14.541Z,23.90
2023-07-07T06:54:16.942Z,24.04
2023-07-07T06:57:19.343Z,23.98
2023-07-07T07:00:22.529Z,23.96
2023-07-07T07:03:24.853Z,23.98
2023-07-07T07:06:28.130Z,23.98
2023-07-07T07:09:30.580Z,23.97
2023-07-07T07:12:33.030Z,23.92
2023-07-07T07:15:35.478Z,23.93
2023-07-07T07:18:37.839Z,24.03
2023-07-07T07:21:40.200Z,24.05
2023-07-07T07:24:43.185Z,24.04
2023-07-07T07:27:45.589Z,24.31
2023-07-07T07:30:48.120Z,24.43
2023-07-07T07:33:52.642Z,24.27
2023-07-07T07:36:55.630Z,24.38
2023-07-07T07:39:57.963Z,24.45
2023-07-07T07:43:00.300Z,24.46
2023-07-07T07:46:02.727Z,24.38
2023-07-07T07:49:05.125Z,24.28
2023-07-07T07:52:07.911Z,24.41
2023-07-07T07:55:10.438Z,24.38
2023-07-07T07:58:13.089Z,24.30
2023-07-07T08:01:15.505Z,24.23
2023-07-07T08:04:17.949Z,24.23
2023-07-07T08:07:20.276Z,24.28
2023-07-07T08:10:22.623Z,24.25
2023-07-07T08:13:35.240Z,24.36
2023-07-07T08:16:42.348Z,24.18
2023-07-07T08:19:45.483Z,24.30
2023-07-07T08:22:47.933Z,24.30
2023-07-07T08:26:25.784Z,24.38
2023-07-07T08:32:22.719Z,24.89
2023-07-07T08:35:25.173Z,25.29
2023-07-07T08:38:27.539Z,25.24
2023-07-07T08:41:29.975Z,25.24
2023-07-07T08:44:34.146Z,25.43
2023-07-07T08:47:58.169Z,25.79
2023-07-07T08:51:03.046Z,25.66
2023-07-07T08:54:14.480Z,26.05
2023-07-07T08:57:18.635Z,26.28
2023-07-07T09:00:46.151Z,26.37
2023-07-07T09:03:51.665Z,26.38
2023-07-07T09:06:54.033Z,26.21
2023-07-07T09:10:28.255Z,26.55
2023-07-07T09:13:32.554Z,26.70
2023-07-07T09:16:36.283Z,26.88
2023-07-07T09:19:39.437Z,26.69
2023-07-07T09:22:55.628Z,27.11
2023-07-07T09:26:22.564Z,27.22
2023-07-07T09:29:27.664Z,27.05
2023-07-07T09:32:30.099Z,26.78
2023-07-07T09:35:36.383Z,26.71
2023-07-07T09:38:41.601Z,26.72
2023-07-07T09:42:01.960Z,26.96
2023-07-07T09:45:10.239Z,27.82
2023-07-07T09:48:18.580Z,28.04
2023-07-07T09:51:42.959Z,27.99
2023-07-07T09:54:45.368Z,27.81
2023-07-07T09:57:59.110Z,27.71
2023-07-07T10:01:03.289Z,27.62
2023-07-07T10:04:13.028Z,27.95
2023-07-07T10:07:15.825Z,27.82
2023-07-07T10:10:18.210Z,27.63
2023-07-07T10:13:20.922Z,27.59
2023-07-07T10:16:33.629Z,27.51
2023-07-07T10:20:02.059Z,27.50
2023-07-07T10:23:04.536Z,27.59
2023-07-07T10:26:06.899Z,28.13
2023-07-07T10:29:11.484Z,28.03
2023-07-07T10:32:18.161Z,28.54
2023-07-07T10:35:21.259Z,28.64
2023-07-07T10:38:24.378Z,28.79
2023-07-07T10:41:27.836Z,28.59
2023-07-07T10:44:30.232Z,28.24
2023-07-07T10:47:34.273Z,28.48
2023-07-07T10:50:37.995Z,28.55
2023-07-07T10:54:02.308Z,28.25
2023-07-07T10:57:27.633Z,28.39
2023-07-07T11:00:38.477Z,28.82
2023-07-07T11:03:49.497Z,28.61
2023-07-07T11:07:29.620Z,28.46
2023-07-07T11:10:50.383Z,28.42
2023-07-07T11:14:04.955Z,28.48
2023-07-07T11:17:29.737Z,28.89
2023-07-07T11:20:35.150Z,28.98
2023-07-07T11:23:56.689Z,29.16
2023-07-07T11:27:28.875Z,28.68
2023-07-07T11:30:37.628Z,28.36
2023-07-07T11:33:58.565Z,29.18
2023-07-07T11:37:11.376Z,28.60
2023-07-07T11:40:33.595Z,29.18
2023-07-07T11:44:14.241Z,29.89
2023-07-07T11:47:35.083Z,30.05
2023-07-07T11:50:41.506Z,30.28
2023-07-07T11:54:07.577Z,30.66
2023-07-07T11:57:12.949Z,30.43
2023-07-07T12:00:36.010Z,30.85
2023-07-07T12:03:43.877Z,30.93
2023-07-07T12:06:53.441Z,30.96
2023-07-07T12:10:01.612Z,31.18
2023-07-07T12:13:06.878Z,31.91
2023-07-07T12:16:14.849Z,32.01
2023-07-07T12:19:32.333Z,32.12
2023-07-07T12:22:36.560Z,31.47
2023-07-07T12:25:38.928Z,31.04
2023-07-07T12:28:43.920Z,31.72
2023-07-07T12:31:48.393Z,32.40
2023-07-07T12:35:17.716Z,32.59
2023-07-07T12:38:28.970Z,32.77
2023-07-07T12:41:31.414Z,32.24
2023-07-07T12:44:34.276Z,32.50
2023-07-07T12:47:42.704Z,32.56
2023-07-07T12:50:45.170Z,31.37
2023-07-07T12:53:54.927Z,31.69
2023-07-07T12:57:12.336Z,32.05
2023-07-07T13:00:45.577Z,32.35
2023-07-07T13:04:08.680Z,31.52
2023-07-07T13:07:20.246Z,31.53
2023-07-07T13:10:50.738Z,31.25
2023-07-07T13:13:53.098Z,29.73
2023-07-07T13:16:59.857Z,28.28
2023-07-07T13:20:03.259Z,27.59
2023-07-07T13:23:30.000Z,27.62
2023-07-07T13:26:32.430Z,28.26
2023-07-07T13:29:39.083Z,28.32
2023-07-07T13:32:42.722Z,28.22
2023-07-07T13:35:53.595Z,28.00
2023-07-07T13:38:56.045Z,27.76
2023-07-07T13:41:59.344Z,28.00
2023-07-07T13:45:09.129Z,28.41
2023-07-07T13:48:21.832Z,29.00
2023-07-07T13:51:29.678Z,28.58
2023-07-07T13:54:32.025Z,28.19
2023-07-07T13:57:34.690Z,28.47
2023-07-07T14:00:38.124Z,28.85
2023-07-07T14:03:40.538Z,28.36
2023-07-07T14:06:45.945Z,27.97
2023-07-07T14:09:49.620Z,27.64
2023-07-07T14:12:52.044Z,27.46
2023-07-07T14:15:58.109Z,27.54
2023-07-07T14:19:22.069Z,27.35
2023-07-07T14:22:24.504Z,27.14
2023-07-07T14:25:26.895Z,27.23
2023-07-07T14:28:36.856Z,27.23
2023-07-07T14:31:40.024Z,27.36
2023-07-07T14:34:47.625Z,27.29
2023-07-07T14:37:58.523Z,27.38
2023-07-07T14:41:12.440Z,27.55
2023-07-07T14:44:41.813Z,28.01
2023-07-07T14:47:44.295Z,28.17
2023-07-07T14:50:46.746Z,27.99
2023-07-07T14:54:02.098Z,27.92
2023-07-07T14:57:08.457Z,27.81
2023-07-07T15:00:28.128Z,27.82
2023-07-07T15:03:31.912Z,27.79
2023-07-07T15:06:35.852Z,27.69
2023-07-07T15:09:38.255Z,27.68
2023-07-07T15:12:40.622Z,27.62
2023-07-07T15:15:43.065Z,27.55
2023-07-07T15:18:45.792Z,27.55
2023-07-07T15:21:48.330Z,27.64
2023-07-07T15:24:52.144Z,27.79
2023-07-07T15:27:54.513Z,27.81
2023-07-07T15:30:56.854Z,27.67
2023-07-07T15:33:59.257Z,27.57
2023-07-07T15:37:01.617Z,27.51
2023-07-07T15:40:12.238Z,27.29
2023-07-07T15:43:14.614Z,27.32
2023-07-07T15:46:27.195Z,27.35
2023-07-07T15:49:29.564Z,27.32
2023-07-07T15:52:32.086Z,27.29
2023-07-07T15:55:34.616Z,27.33
2023-07-07T15:58:37.071Z,27.43
2023-07-07T16:01:39.457Z,27.43
2023-07-07T16:04:41.928Z,27.57
2023-07-07T16:07:44.370Z,27.35
2023-07-07T16:10:46.782Z,27.24
2023-07-07T16:13:53.109Z,27.16
2023-07-07T16:16:55.485Z,27.16
2023-07-07T16:20:01.971Z,27.13
2023-07-07T16:23:04.391Z,27.20
2023-07-07T16:26:12.517Z,27.10
2023-07-07T16:29:18.474Z,26.91
2023-07-07T16:32:20.802Z,26.88
2023-07-07T16:35:23.576Z,26.85
2023-07-07T16:38:25.918Z,26.83
2023-07-07T16:41:28.842Z,26.89
2023-07-07T16:44:31.175Z,26.87
2023-07-07T16:47:33.663Z,26.85
2023-07-07T16:50:36.085Z,26.79
2023-07-07T16:53:40.412Z,26.75
2023-07-07T16:56:43.538Z,26.67
2023-07-07T16:59:46.052Z,26.55
2023-07-07T17:02:48.724Z,26.48
2023-07-07T17:05:51.169Z,26.39
2023-07-07T17:08:55.799Z,26.25
2023-07-07T17:11:58.212Z,26.13
2023-07-07T17:15:02.865Z,26.06
2023-07-07T17:18:09.535Z,26.13
2023-07-07T17:21:12.028Z,26.06
2023-07-07T17:24:14.468Z,26.07
2023-07-07T17:27:16.836Z,26.03
2023-07-07T17:30:24.373Z,26.05
2023-07-07T17:33:27.065Z,25.99
2023-07-07T17:36:30.601Z,25.92
2023-07-07T17:39:33.210Z,25.87
2023-07-07T17:42:35.608Z,25.90
2023-07-07T17:45:37.975Z,25.89
2023-07-07T17:48:40.369Z,25.89
2023-07-07T17:51:42.936Z,25.85
2023-07-07T17:54:45.301Z,25.89
2023-07-07T17:57:47.856Z,25.86
2023-07-07T18:00:51.167Z,25.85
2023-07-07T18:03:53.724Z,25.74
2023-07-07T18:06:56.156Z,25.69
2023-07-07T18:09:58.554Z,25.60
2023-07-07T18:13:00.973Z,25.59
2023-07-07T18:16:03.375Z,25.50
2023-07-07T18:19:41.491Z,25.45
2023-07-07T18:22:32.208Z,25.30
2023-07-07T18:25:34.640Z,25.23
2023-07-07T18:28:37.001Z,25.14
2023-07-07T18:31:40.634Z,25.06
2023-07-07T18:34:45.268Z,24.98
2023-07-07T18:37:47.723Z,24.85
2023-07-07T18:40:50.396Z,24.78
2023-07-07T18:43:52.889Z,24.70
2023-07-07T18:46:55.340Z,24.67
2023-07-07T18:49:57.734Z,24.62
2023-07-07T18:53:00.255Z,24.66
2023-07-07T18:56:02.620Z,24.60
2023-07-07T18:59:18.284Z,24.50
2023-07-07T19:02:20.698Z,24.41
2023-07-07T19:05:23.101Z,24.28
2023-07-07T19:08:25.594Z,24.12
2023-07-07T19:11:27.959Z,23.99
2023-07-07T19:14:30.354Z,23.79
2023-07-07T19:17:32.760Z,23.58
2023-07-07T19:20:35.235Z,23.30
2023-07-07T19:23:37.597Z,23.21
2023-07-07T19:26:44.663Z,22.93
2023-07-07T19:29:47.086Z,22.78
2023-07-07T19:32:49.526Z,22.85
2023-07-07T19:35:56.052Z,22.84
2023-07-07T19:38:58.562Z,22.79
2023-07-07T19:42:00.922Z,22.83
2023-07-07T19:45:03.435Z,22.79
2023-07-07T19:48:23.833Z,22.72
2023-07-07T19:51:29.039Z,22.70
2023-07-07T19:54:31.526Z,22.71
2023-07-07T19:57:33.952Z,22.69
2023-07-07T20:00:36.308Z,22.72
2023-07-07T20:03:39.700Z,22.52
2023-07-07T20:06:44.651Z,22.34
2023-07-07T20:09:47.099Z,22.37
2023-07-07T20:12:50.222Z,22.24
2023-07-07T20:15:52.646Z,22.14
2023-07-07T20:18:56.140Z,22.00
2023-07-07T20:21:58.559Z,21.93
2023-07-07T20:25:00.944Z,21.84
2023-07-07T20:28:03.358Z,21.77
2023-07-07T20:31:05.787Z,21.72
2023-07-07T20:34:08.625Z,21.67
2023-07-07T20:37:12.743Z,21.74
2023-07-07T20:40:23.396Z,21.42
2023-07-07T20:43:25.748Z,21.38
2023-07-07T20:46:30.384Z,21.38
2023-07-07T20:49:32.872Z,21.52
2023-07-07T20:52:35.237Z,21.43
2023-07-07T20:55:37.688Z,21.52
2023-07-07T20:58:40.244Z,21.57
2023-07-07T21:01:42.668Z,21.59
2023-07-07T21:04:45.047Z,21.58
2023-07-07T21:07:47.448Z,21.61
2023-07-07T21:10:49.976Z,21.46
2023-07-07T21:13:52.435Z,21.41
2023-07-07T21:16:54.796Z,21.39
2023-07-07T21:19:57.200Z,21.38
2023-07-07T21:23:07.488Z,21.17
2023-07-07T21:26:21.966Z,21.15
2023-07-07T21:29:24.352Z,21.19
2023-07-07T21:32:26.781Z,21.26
2023-07-07T21:35:29.360Z,21.26
2023-07-07T21:38:31.765Z,21.07
2023-07-07T21:41:42.478Z,21.05
2023-07-07T21:44:47.227Z,20.96
2023-07-07T21:47:57.319Z,20.91
2023-07-07T21:51:00.038Z,20.86
2023-07-07T21:54:02.640Z,20.87
2023-07-07T21:57:06.242Z,20.82
2023-07-07T22:00:28.353Z,20.84
2023-07-07T22:03:30.775Z,20.80
2023-07-07T22:06:33.117Z,20.82
2023-07-07T22:09:35.493Z,20.83
2023-07-07T22:12:37.818Z,20.79
2023-07-07T22:15:40.336Z,20.76
2023-07-07T22:18:54.170Z,20.60
2023-07-07T22:21:58.186Z,20.59
2023-07-07T22:25:00.565Z,20.53
2023-07-07T22:28:03.627Z,20.45
2023-07-07T22:31:07.708Z,20.48
2023-07-07T22:34:10.178Z,20.43
2023-07-07T22:37:13.590Z,20.56
2023-07-07T22:40:22.549Z,20.49
2023-07-07T22:43:25.400Z,20.43
2023-07-07T22:46:29.965Z,20.37
2023-07-07T22:49:32.397Z,20.31
2023-07-07T22:52:34.788Z,20.18
2023-07-07T22:55:38.424Z,20.36
2023-07-07T22:58:40.800Z,20.26
2023-07-07T23:01:43.231Z,20.23
2023-07-07T23:04:45.628Z,20.29
2023-07-07T23:07:48.049Z,20.13
2023-07-07T23:10:52.037Z,20.02
2023-07-07T23:13:54.485Z,19.93
2023-07-07T23:16:57.382Z,19.86
2023-07-07T23:20:00.723Z,19.93
2023-07-07T23:23:05.270Z,19.86
2023-07-07T23:26:20.624Z,19.84
2023-07-07T23:29:23.271Z,19.69
2023-07-07T23:32:25.618Z,19.60
2023-07-07T23:35:27.989Z,19.52
2023-07-07T23:38:30.364Z,19.46
2023-07-07T23:41:32.801Z,19.36
2023-07-07T23:44:35.174Z,19.47
2023-07-07T23:47:38.750Z,19.44
2023-07-07T23:51:01.822Z,19.34
2023-07-07T23:54:04.560Z,19.49
2023-07-07T23:57:13.448Z,19.51
